sensor_id;sensor_type;location;lat;lon;timestamp;temperature;humidity
22765;DHT22;11549;50.852;3.816;2023-04-21T00:02:07;6.90;99.90
22765;DHT22;11549;50.852;3.816;2023-04-21T00:04:35;6.90;99.90
22765;DHT22;11549;50.852;3.816;2023-04-21T00:07:04;6.90;99.90
22765;DHT22;11549;50.852;3.816;2023-04-21T00:09:33;6.90;99.90
22765;DHT22;11549;50.852;3.816;2023-04-21T00:12:01;7.00;99.90
22765;DHT22;11549;50.852;3.816;2023-04-21T00:14:29;7.10;99.90
22765;DHT22;11549;50.852;3.816;2023-04-21T00:16:59;7.20;99.90
22765;DHT22;11549;50.852;3.816;2023-04-21T00:19:27;7.20;99.90
22765;DHT22;11549;50.852;3.816;2023-04-21T00:21:55;7.20;99.90
22765;DHT22;11549;50.852;3.816;2023-04-21T00:24:25;7.20;99.90
22765;DHT22;11549;50.852;3.816;2023-04-21T00:26:54;7.20;99.90
22765;DHT22;11549;50.852;3.816;2023-04-21T00:29:22;7.10;99.90
22765;DHT22;11549;50.852;3.816;2023-04-21T00:31:50;7.20;99.90
22765;DHT22;11549;50.852;3.816;2023-04-21T00:34:21;7.20;99.90
22765;DHT22;11549;50.852;3.816;2023-04-21T00:36:49;7.20;99.90
22765;DHT22;11549;50.852;3.816;2023-04-21T00:39:17;7.20;99.90
22765;DHT22;11549;50.852;3.816;2023-04-21T00:41:46;7.20;99.90
22765;DHT22;11549;50.852;3.816;2023-04-21T00:44:14;7.20;99.90
22765;DHT22;11549;50.852;3.816;2023-04-21T00:46:43;7.10;99.90
22765;DHT22;11549;50.852;3.816;2023-04-21T00:49:11;7.10;99.90
22765;DHT22;11549;50.852;3.816;2023-04-21T00:51:41;7.20;99.90
22765;DHT22;11549;50.852;3.816;2023-04-21T00:54:11;7.20;99.90
22765;DHT22;11549;50.852;3.816;2023-04-21T00:56:40;7.30;99.90
22765;DHT22;11549;50.852;3.816;2023-04-21T00:59:08;7.30;99.90
22765;DHT22;11549;50.852;3.816;2023-04-21T01:01:37;7.30;99.90
22765;DHT22;11549;50.852;3.816;2023-04-21T01:04:05;7.30;99.90
22765;DHT22;11549;50.852;3.816;2023-04-21T01:06:36;7.30;99.90
22765;DHT22;11549;50.852;3.816;2023-04-21T01:09:06;7.30;99.90
22765;DHT22;11549;50.852;3.816;2023-04-21T01:11:34;7.30;99.90
22765;DHT22;11549;50.852;3.816;2023-04-21T01:14:02;7.30;99.90
22765;DHT22;11549;50.852;3.816;2023-04-21T01:16:31;7.30;99.90
22765;DHT22;11549;50.852;3.816;2023-04-21T01:19:00;7.30;99.90
22765;DHT22;11549;50.852;3.816;2023-04-21T01:21:38;7.30;99.90
22765;DHT22;11549;50.852;3.816;2023-04-21T01:24:07;7.30;99.90
22765;DHT22;11549;50.852;3.816;2023-04-21T01:26:35;7.30;99.90
22765;DHT22;11549;50.852;3.816;2023-04-21T01:29:04;7.30;99.90
22765;DHT22;11549;50.852;3.816;2023-04-21T01:31:33;7.30;99.90
22765;DHT22;11549;50.852;3.816;2023-04-21T01:34:02;7.40;99.90
22765;DHT22;11549;50.852;3.816;2023-04-21T01:36:31;7.50;99.90
22765;DHT22;11549;50.852;3.816;2023-04-21T01:39:01;7.40;99.90
22765;DHT22;11549;50.852;3.816;2023-04-21T01:41:30;7.30;99.90
22765;DHT22;11549;50.852;3.816;2023-04-21T01:43:58;7.40;99.90
22765;DHT22;11549;50.852;3.816;2023-04-21T01:46:27;7.40;99.90
22765;DHT22;11549;50.852;3.816;2023-04-21T01:48:56;7.30;99.90
22765;DHT22;11549;50.852;3.816;2023-04-21T01:51:24;7.40;99.90
22765;DHT22;11549;50.852;3.816;2023-04-21T01:53:53;7.40;99.90
22765;DHT22;11549;50.852;3.816;2023-04-21T01:56:23;7.30;99.90
22765;DHT22;11549;50.852;3.816;2023-04-21T01:58:51;7.30;99.90
22765;DHT22;11549;50.852;3.816;2023-04-21T02:01:20;7.30;99.90
22765;DHT22;11549;50.852;3.816;2023-04-21T02:03:48;7.30;99.90
22765;DHT22;11549;50.852;3.816;2023-04-21T02:06:17;7.20;99.90
22765;DHT22;11549;50.852;3.816;2023-04-21T02:08:45;7.20;99.90
22765;DHT22;11549;50.852;3.816;2023-04-21T02:11:14;7.10;99.90
22765;DHT22;11549;50.852;3.816;2023-04-21T02:13:43;7.10;99.90
22765;DHT22;11549;50.852;3.816;2023-04-21T02:16:12;7.10;99.90
22765;DHT22;11549;50.852;3.816;2023-04-21T02:18:41;7.00;99.90
22765;DHT22;11549;50.852;3.816;2023-04-21T02:21:10;7.00;99.90
22765;DHT22;11549;50.852;3.816;2023-04-21T02:23:38;6.90;99.90
22765;DHT22;11549;50.852;3.816;2023-04-21T02:26:07;7.00;99.90
22765;DHT22;11549;50.852;3.816;2023-04-21T02:28:36;7.10;99.90
22765;DHT22;11549;50.852;3.816;2023-04-21T02:31:06;7.10;99.90
22765;DHT22;11549;50.852;3.816;2023-04-21T02:33:34;7.10;99.90
22765;DHT22;11549;50.852;3.816;2023-04-21T02:36:03;7.20;99.90
22765;DHT22;11549;50.852;3.816;2023-04-21T02:38:32;7.10;99.90
22765;DHT22;11549;50.852;3.816;2023-04-21T02:41:00;7.00;99.90
22765;DHT22;11549;50.852;3.816;2023-04-21T02:43:29;7.00;99.90
22765;DHT22;11549;50.852;3.816;2023-04-21T02:45:57;7.00;99.90
22765;DHT22;11549;50.852;3.816;2023-04-21T02:48:27;7.00;99.90
22765;DHT22;11549;50.852;3.816;2023-04-21T02:50:55;7.10;99.90
22765;DHT22;11549;50.852;3.816;2023-04-21T02:53:23;7.00;99.90
22765;DHT22;11549;50.852;3.816;2023-04-21T02:55:52;7.00;99.90
22765;DHT22;11549;50.852;3.816;2023-04-21T02:58:20;6.80;99.90
22765;DHT22;11549;50.852;3.816;2023-04-21T03:00:48;6.80;99.90
22765;DHT22;11549;50.852;3.816;2023-04-21T03:03:17;6.90;99.90
22765;DHT22;11549;50.852;3.816;2023-04-21T03:05:47;7.00;99.90
22765;DHT22;11549;50.852;3.816;2023-04-21T03:08:16;7.10;99.90
22765;DHT22;11549;50.852;3.816;2023-04-21T03:10:44;7.10;99.90
22765;DHT22;11549;50.852;3.816;2023-04-21T03:13:12;7.10;99.90
22765;DHT22;11549;50.852;3.816;2023-04-21T03:15:40;7.10;99.90
22765;DHT22;11549;50.852;3.816;2023-04-21T03:18:09;7.00;99.90
22765;DHT22;11549;50.852;3.816;2023-04-21T03:20:37;7.00;99.90
22765;DHT22;11549;50.852;3.816;2023-04-21T03:23:07;7.00;99.90
22765;DHT22;11549;50.852;3.816;2023-04-21T03:25:37;7.10;99.90
22765;DHT22;11549;50.852;3.816;2023-04-21T03:28:05;7.10;99.90
22765;DHT22;11549;50.852;3.816;2023-04-21T03:30:33;7.20;99.90
22765;DHT22;11549;50.852;3.816;2023-04-21T03:33:02;7.20;99.90
22765;DHT22;11549;50.852;3.816;2023-04-21T03:35:30;7.20;99.90
22765;DHT22;11549;50.852;3.816;2023-04-21T03:38:00;7.10;99.90
22765;DHT22;11549;50.852;3.816;2023-04-21T03:40:31;7.10;99.90
22765;DHT22;11549;50.852;3.816;2023-04-21T03:42:59;7.10;99.90
22765;DHT22;11549;50.852;3.816;2023-04-21T03:45:27;7.20;99.90
22765;DHT22;11549;50.852;3.816;2023-04-21T03:47:56;7.20;99.90
22765;DHT22;11549;50.852;3.816;2023-04-21T03:50:24;7.00;99.90
22765;DHT22;11549;50.852;3.816;2023-04-21T03:52:53;6.90;99.90
22765;DHT22;11549;50.852;3.816;2023-04-21T03:55:21;6.90;99.90
22765;DHT22;11549;50.852;3.816;2023-04-21T03:57:50;6.80;99.90
22765;DHT22;11549;50.852;3.816;2023-04-21T04:00:19;6.70;99.90
22765;DHT22;11549;50.852;3.816;2023-04-21T04:02:47;6.80;99.90
22765;DHT22;11549;50.852;3.816;2023-04-21T04:05:16;6.80;99.90
22765;DHT22;11549;50.852;3.816;2023-04-21T04:07:44;6.80;99.90
22765;DHT22;11549;50.852;3.816;2023-04-21T04:10:12;6.90;99.90
22765;DHT22;11549;50.852;3.816;2023-04-21T04:12:41;6.90;99.90
22765;DHT22;11549;50.852;3.816;2023-04-21T04:15:11;7.00;99.90
22765;DHT22;11549;50.852;3.816;2023-04-21T04:17:39;7.10;99.90
22765;DHT22;11549;50.852;3.816;2023-04-21T04:20:08;7.10;99.90
22765;DHT22;11549;50.852;3.816;2023-04-21T04:22:36;7.00;99.90
22765;DHT22;11549;50.852;3.816;2023-04-21T04:25:05;7.00;99.90
22765;DHT22;11549;50.852;3.816;2023-04-21T04:27:33;7.00;99.90
22765;DHT22;11549;50.852;3.816;2023-04-21T04:30:02;7.00;99.90
22765;DHT22;11549;50.852;3.816;2023-04-21T04:32:31;7.10;99.90
22765;DHT22;11549;50.852;3.816;2023-04-21T04:35:00;6.90;99.90
22765;DHT22;11549;50.852;3.816;2023-04-21T04:37:29;6.80;99.90
22765;DHT22;11549;50.852;3.816;2023-04-21T04:39:57;6.90;99.90
22765;DHT22;11549;50.852;3.816;2023-04-21T04:42:25;6.90;99.90
22765;DHT22;11549;50.852;3.816;2023-04-21T04:44:55;6.90;99.90
22765;DHT22;11549;50.852;3.816;2023-04-21T04:47:25;6.90;99.90
22765;DHT22;11549;50.852;3.816;2023-04-21T04:49:54;6.90;99.90
22765;DHT22;11549;50.852;3.816;2023-04-21T04:52:23;6.80;99.90
22765;DHT22;11549;50.852;3.816;2023-04-21T04:54:51;6.90;99.90
22765;DHT22;11549;50.852;3.816;2023-04-21T04:57:19;6.90;99.90
22765;DHT22;11549;50.852;3.816;2023-04-21T04:59:48;6.90;99.90
22765;DHT22;11549;50.852;3.816;2023-04-21T05:02:17;6.90;99.90
22765;DHT22;11549;50.852;3.816;2023-04-21T05:04:45;6.90;99.90
22765;DHT22;11549;50.852;3.816;2023-04-21T05:07:16;7.00;99.90
22765;DHT22;11549;50.852;3.816;2023-04-21T05:09:44;7.10;99.90
22765;DHT22;11549;50.852;3.816;2023-04-21T05:12:12;7.10;99.90
22765;DHT22;11549;50.852;3.816;2023-04-21T05:14:41;7.10;99.90
22765;DHT22;11549;50.852;3.816;2023-04-21T05:17:09;7.10;99.90
22765;DHT22;11549;50.852;3.816;2023-04-21T05:19:37;7.10;99.90
22765;DHT22;11549;50.852;3.816;2023-04-21T05:22:05;7.10;99.90
22765;DHT22;11549;50.852;3.816;2023-04-21T05:24:35;7.10;99.90
22765;DHT22;11549;50.852;3.816;2023-04-21T05:27:03;7.10;99.90
22765;DHT22;11549;50.852;3.816;2023-04-21T05:29:32;7.20;99.90
22765;DHT22;11549;50.852;3.816;2023-04-21T05:32:00;7.20;99.90
22765;DHT22;11549;50.852;3.816;2023-04-21T05:34:28;7.20;99.90
22765;DHT22;11549;50.852;3.816;2023-04-21T05:36:57;7.30;99.90
22765;DHT22;11549;50.852;3.816;2023-04-21T05:39:26;7.30;99.90
22765;DHT22;11549;50.852;3.816;2023-04-21T05:41:56;7.40;99.90
22765;DHT22;11549;50.852;3.816;2023-04-21T05:44:24;7.40;99.90
22765;DHT22;11549;50.852;3.816;2023-04-21T05:46:52;7.30;99.90
22765;DHT22;11549;50.852;3.816;2023-04-21T05:49:21;7.30;99.90
22765;DHT22;11549;50.852;3.816;2023-04-21T05:51:49;7.40;99.90
22765;DHT22;11549;50.852;3.816;2023-04-21T05:54:17;7.30;99.90
22765;DHT22;11549;50.852;3.816;2023-04-21T05:56:46;7.30;99.90
22765;DHT22;11549;50.852;3.816;2023-04-21T05:59:16;7.30;99.90
22765;DHT22;11549;50.852;3.816;2023-04-21T06:01:44;7.30;99.90
22765;DHT22;11549;50.852;3.816;2023-04-21T06:04:13;7.40;99.90
22765;DHT22;11549;50.852;3.816;2023-04-21T06:06:41;7.50;99.90
22765;DHT22;11549;50.852;3.816;2023-04-21T06:09:10;7.70;99.90
22765;DHT22;11549;50.852;3.816;2023-04-21T06:11:41;7.80;99.90
22765;DHT22;11549;50.852;3.816;2023-04-21T06:14:09;7.90;99.90
22765;DHT22;11549;50.852;3.816;2023-04-21T06:16:39;8.00;99.90
22765;DHT22;11549;50.852;3.816;2023-04-21T06:19:07;7.80;99.90
22765;DHT22;11549;50.852;3.816;2023-04-21T06:21:36;7.80;99.90
22765;DHT22;11549;50.852;3.816;2023-04-21T06:24:04;7.80;99.90
22765;DHT22;11549;50.852;3.816;2023-04-21T06:26:33;8.00;99.90
22765;DHT22;11549;50.852;3.816;2023-04-21T06:29:01;8.00;99.90
22765;DHT22;11549;50.852;3.816;2023-04-21T06:31:29;8.00;99.90
22765;DHT22;11549;50.852;3.816;2023-04-21T06:33:59;7.90;99.90
22765;DHT22;11549;50.852;3.816;2023-04-21T06:36:28;7.90;99.90
22765;DHT22;11549;50.852;3.816;2023-04-21T06:38:56;7.90;99.90
22765;DHT22;11549;50.852;3.816;2023-04-21T06:41:25;8.10;99.90
22765;DHT22;11549;50.852;3.816;2023-04-21T06:43:53;8.30;99.90
22765;DHT22;11549;50.852;3.816;2023-04-21T06:46:21;8.40;99.90
22765;DHT22;11549;50.852;3.816;2023-04-21T06:48:50;8.30;99.90
22765;DHT22;11549;50.852;3.816;2023-04-21T06:51:20;8.50;99.90
22765;DHT22;11549;50.852;3.816;2023-04-21T06:53:48;8.60;99.90
22765;DHT22;11549;50.852;3.816;2023-04-21T06:56:17;9.20;99.90
22765;DHT22;11549;50.852;3.816;2023-04-21T06:58:45;9.90;99.90
22765;DHT22;11549;50.852;3.816;2023-04-21T07:01:13;10.30;99.90
22765;DHT22;11549;50.852;3.816;2023-04-21T07:03:42;10.50;99.90
22765;DHT22;11549;50.852;3.816;2023-04-21T07:06:10;10.60;99.90
22765;DHT22;11549;50.852;3.816;2023-04-21T07:08:40;10.50;99.90
22765;DHT22;11549;50.852;3.816;2023-04-21T07:11:09;10.50;99.90
22765;DHT22;11549;50.852;3.816;2023-04-21T07:13:37;10.90;99.90
22765;DHT22;11549;50.852;3.816;2023-04-21T07:16:05;11.10;99.90
22765;DHT22;11549;50.852;3.816;2023-04-21T07:18:34;11.30;99.90
22765;DHT22;11549;50.852;3.816;2023-04-21T07:21:03;11.30;99.90
22765;DHT22;11549;50.852;3.816;2023-04-21T07:23:31;11.10;99.90
22765;DHT22;11549;50.852;3.816;2023-04-21T07:26:01;10.90;99.90
22765;DHT22;11549;50.852;3.816;2023-04-21T07:28:29;10.60;99.90
22765;DHT22;11549;50.852;3.816;2023-04-21T07:30:57;10.50;99.90
22765;DHT22;11549;50.852;3.816;2023-04-21T07:33:29;10.70;99.90
22765;DHT22;11549;50.852;3.816;2023-04-21T07:35:57;10.80;99.90
22765;DHT22;11549;50.852;3.816;2023-04-21T07:38:26;10.80;99.90
22765;DHT22;11549;50.852;3.816;2023-04-21T07:40:54;10.80;99.90
22765;DHT22;11549;50.852;3.816;2023-04-21T07:43:24;10.80;99.90
22765;DHT22;11549;50.852;3.816;2023-04-21T07:45:52;10.50;99.90
22765;DHT22;11549;50.852;3.816;2023-04-21T07:48:20;10.50;99.90
22765;DHT22;11549;50.852;3.816;2023-04-21T07:50:49;10.60;99.90
22765;DHT22;11549;50.852;3.816;2023-04-21T07:53:19;10.50;99.90
22765;DHT22;11549;50.852;3.816;2023-04-21T07:55:47;10.50;99.90
22765;DHT22;11549;50.852;3.816;2023-04-21T07:58:15;10.50;99.90
22765;DHT22;11549;50.852;3.816;2023-04-21T08:00:45;10.40;99.90
22765;DHT22;11549;50.852;3.816;2023-04-21T08:03:13;10.10;99.90
22765;DHT22;11549;50.852;3.816;2023-04-21T08:05:43;10.00;99.90
22765;DHT22;11549;50.852;3.816;2023-04-21T08:08:12;10.10;99.90
22765;DHT22;11549;50.852;3.816;2023-04-21T08:10:46;10.30;99.90
22765;DHT22;11549;50.852;3.816;2023-04-21T08:13:14;10.40;99.90
22765;DHT22;11549;50.852;3.816;2023-04-21T08:15:42;10.50;99.90
22765;DHT22;11549;50.852;3.816;2023-04-21T08:18:12;10.50;99.90
22765;DHT22;11549;50.852;3.816;2023-04-21T08:20:44;10.60;99.90
22765;DHT22;11549;50.852;3.816;2023-04-21T08:23:13;10.60;99.90
22765;DHT22;11549;50.852;3.816;2023-04-21T08:25:42;10.70;99.90
22765;DHT22;11549;50.852;3.816;2023-04-21T08:28:11;10.80;99.90
22765;DHT22;11549;50.852;3.816;2023-04-21T08:30:41;10.80;99.90
22765;DHT22;11549;50.852;3.816;2023-04-21T08:33:09;10.80;99.90
22765;DHT22;11549;50.852;3.816;2023-04-21T08:35:41;10.70;99.90
22765;DHT22;11549;50.852;3.816;2023-04-21T08:38:27;10.60;99.90
22765;DHT22;11549;50.852;3.816;2023-04-21T08:40:58;10.60;99.90
22765;DHT22;11549;50.852;3.816;2023-04-21T08:43:27;10.60;99.90
22765;DHT22;11549;50.852;3.816;2023-04-21T08:45:56;10.50;99.90
22765;DHT22;11549;50.852;3.816;2023-04-21T08:48:25;10.60;99.90
22765;DHT22;11549;50.852;3.816;2023-04-21T08:50:56;10.50;99.90
22765;DHT22;11549;50.852;3.816;2023-04-21T08:53:25;10.70;99.90
22765;DHT22;11549;50.852;3.816;2023-04-21T08:55:55;10.70;99.90
22765;DHT22;11549;50.852;3.816;2023-04-21T08:58:37;11.00;99.90
22765;DHT22;11549;50.852;3.816;2023-04-21T09:01:05;11.50;99.90
22765;DHT22;11549;50.852;3.816;2023-04-21T09:03:34;12.00;99.90
22765;DHT22;11549;50.852;3.816;2023-04-21T09:06:05;12.20;99.90
22765;DHT22;11549;50.852;3.816;2023-04-21T09:08:37;12.20;99.90
22765;DHT22;11549;50.852;3.816;2023-04-21T09:11:06;12.10;99.90
22765;DHT22;11549;50.852;3.816;2023-04-21T09:13:35;12.00;99.90
22765;DHT22;11549;50.852;3.816;2023-04-21T09:16:05;11.80;99.90
22765;DHT22;11549;50.852;3.816;2023-04-21T09:18:42;12.00;99.90
22765;DHT22;11549;50.852;3.816;2023-04-21T09:21:16;12.30;99.90
22765;DHT22;11549;50.852;3.816;2023-04-21T09:23:46;12.70;99.90
22765;DHT22;11549;50.852;3.816;2023-04-21T09:26:16;12.90;99.90
22765;DHT22;11549;50.852;3.816;2023-04-21T09:28:45;13.00;99.90
22765;DHT22;11549;50.852;3.816;2023-04-21T09:31:15;13.30;99.90
22765;DHT22;11549;50.852;3.816;2023-04-21T09:33:46;13.80;99.90
22765;DHT22;11549;50.852;3.816;2023-04-21T09:36:20;14.00;99.90
22765;DHT22;11549;50.852;3.816;2023-04-21T09:38:54;14.30;99.90
22765;DHT22;11549;50.852;3.816;2023-04-21T09:41:43;14.70;99.90
22765;DHT22;11549;50.852;3.816;2023-04-21T09:44:12;15.30;99.90
22765;DHT22;11549;50.852;3.816;2023-04-21T09:46:41;15.40;99.90
22765;DHT22;11549;50.852;3.816;2023-04-21T09:49:12;15.30;99.90
22765;DHT22;11549;50.852;3.816;2023-04-21T09:51:44;15.40;99.90
22765;DHT22;11549;50.852;3.816;2023-04-21T09:54:17;15.30;99.90
22765;DHT22;11549;50.852;3.816;2023-04-21T09:56:52;15.00;99.90
22765;DHT22;11549;50.852;3.816;2023-04-21T09:59:25;15.10;99.90
22765;DHT22;11549;50.852;3.816;2023-04-21T10:01:57;15.10;99.90
22765;DHT22;11549;50.852;3.816;2023-04-21T10:04:27;15.00;99.90
22765;DHT22;11549;50.852;3.816;2023-04-21T10:07:00;15.40;99.90
22765;DHT22;11549;50.852;3.816;2023-04-21T10:09:32;15.50;99.90
22765;DHT22;11549;50.852;3.816;2023-04-21T10:12:03;15.50;99.90
22765;DHT22;11549;50.852;3.816;2023-04-21T10:14:35;15.50;99.90
22765;DHT22;11549;50.852;3.816;2023-04-21T10:17:05;15.90;99.90
22765;DHT22;11549;50.852;3.816;2023-04-21T10:19:34;16.00;99.90
22765;DHT22;11549;50.852;3.816;2023-04-21T10:22:08;16.20;99.90
22765;DHT22;11549;50.852;3.816;2023-04-21T10:24:38;16.20;99.90
22765;DHT22;11549;50.852;3.816;2023-04-21T10:27:09;16.00;99.90
22765;DHT22;11549;50.852;3.816;2023-04-21T10:29:38;15.80;99.90
22765;DHT22;11549;50.852;3.816;2023-04-21T10:32:30;15.70;99.90
22765;DHT22;11549;50.852;3.816;2023-04-21T10:35:00;15.90;99.90
22765;DHT22;11549;50.852;3.816;2023-04-21T10:37:31;15.90;99.90
22765;DHT22;11549;50.852;3.816;2023-04-21T10:39:59;15.70;99.90
22765;DHT22;11549;50.852;3.816;2023-04-21T10:42:34;15.50;99.90
22765;DHT22;11549;50.852;3.816;2023-04-21T10:45:10;15.70;99.90
22765;DHT22;11549;50.852;3.816;2023-04-21T10:47:45;16.00;99.90
22765;DHT22;11549;50.852;3.816;2023-04-21T10:50:20;16.10;99.90
22765;DHT22;11549;50.852;3.816;2023-04-21T10:52:55;16.10;99.90
22765;DHT22;11549;50.852;3.816;2023-04-21T10:55:27;16.40;99.90
22765;DHT22;11549;50.852;3.816;2023-04-21T10:57:56;16.40;99.90
22765;DHT22;11549;50.852;3.816;2023-04-21T11:00:25;16.30;99.90
22765;DHT22;11549;50.852;3.816;2023-04-21T11:02:58;16.30;99.90
22765;DHT22;11549;50.852;3.816;2023-04-21T11:05:32;16.30;99.90
22765;DHT22;11549;50.852;3.816;2023-04-21T11:08:08;16.40;99.90
22765;DHT22;11549;50.852;3.816;2023-04-21T11:10:50;16.50;99.90
22765;DHT22;11549;50.852;3.816;2023-04-21T11:13:23;16.40;99.90
22765;DHT22;11549;50.852;3.816;2023-04-21T11:16:09;16.10;99.90
22765;DHT22;11549;50.852;3.816;2023-04-21T11:18:40;16.10;99.90
22765;DHT22;11549;50.852;3.816;2023-04-21T11:21:13;16.10;99.90
22765;DHT22;11549;50.852;3.816;2023-04-21T11:23:49;16.30;99.90
22765;DHT22;11549;50.852;3.816;2023-04-21T11:26:23;16.20;99.90
22765;DHT22;11549;50.852;3.816;2023-04-21T11:28:59;16.20;99.90
22765;DHT22;11549;50.852;3.816;2023-04-21T11:31:28;16.60;99.90
22765;DHT22;11549;50.852;3.816;2023-04-21T11:33:58;16.50;99.90
22765;DHT22;11549;50.852;3.816;2023-04-21T11:36:26;16.20;99.90
22765;DHT22;11549;50.852;3.816;2023-04-21T11:38:56;15.80;99.90
22765;DHT22;11549;50.852;3.816;2023-04-21T11:41:25;15.90;99.90
22765;DHT22;11549;50.852;3.816;2023-04-21T11:43:53;16.00;99.90
22765;DHT22;11549;50.852;3.816;2023-04-21T11:46:23;16.50;99.90
22765;DHT22;11549;50.852;3.816;2023-04-21T11:48:59;16.90;99.90
22765;DHT22;11549;50.852;3.816;2023-04-21T11:51:32;16.50;99.90
22765;DHT22;11549;50.852;3.816;2023-04-21T11:54:04;16.50;99.90
22765;DHT22;11549;50.852;3.816;2023-04-21T11:56:34;16.50;99.90
22765;DHT22;11549;50.852;3.816;2023-04-21T11:59:07;16.90;99.90
22765;DHT22;11549;50.852;3.816;2023-04-21T12:01:42;16.70;99.90
22765;DHT22;11549;50.852;3.816;2023-04-21T12:04:13;16.80;99.90
22765;DHT22;11549;50.852;3.816;2023-04-21T12:06:43;16.50;99.90
22765;DHT22;11549;50.852;3.816;2023-04-21T12:09:18;16.40;99.90
22765;DHT22;11549;50.852;3.816;2023-04-21T12:11:47;17.00;99.90
22765;DHT22;11549;50.852;3.816;2023-04-21T12:14:18;17.20;99.90
22765;DHT22;11549;50.852;3.816;2023-04-21T12:16:47;17.10;99.90
22765;DHT22;11549;50.852;3.816;2023-04-21T12:19:21;17.20;99.90
22765;DHT22;11549;50.852;3.816;2023-04-21T12:21:52;17.30;99.90
22765;DHT22;11549;50.852;3.816;2023-04-21T12:24:23;17.40;99.90
22765;DHT22;11549;50.852;3.816;2023-04-21T12:26:51;17.50;99.90
22765;DHT22;11549;50.852;3.816;2023-04-21T12:29:19;17.00;99.90
22765;DHT22;11549;50.852;3.816;2023-04-21T12:31:48;16.60;99.90
22765;DHT22;11549;50.852;3.816;2023-04-21T12:34:16;16.60;99.90
22765;DHT22;11549;50.852;3.816;2023-04-21T12:36:45;16.80;99.90
22765;DHT22;11549;50.852;3.816;2023-04-21T12:39:13;17.30;99.90
22765;DHT22;11549;50.852;3.816;2023-04-21T12:41:44;17.50;99.90
22765;DHT22;11549;50.852;3.816;2023-04-21T12:44:13;17.70;99.90
22765;DHT22;11549;50.852;3.816;2023-04-21T12:46:41;17.80;99.90
22765;DHT22;11549;50.852;3.816;2023-04-21T12:49:10;17.60;99.60
22765;DHT22;11549;50.852;3.816;2023-04-21T12:51:38;17.30;99.90
22765;DHT22;11549;50.852;3.816;2023-04-21T12:54:06;17.60;98.20
22765;DHT22;11549;50.852;3.816;2023-04-21T12:56:34;17.80;97.40
22765;DHT22;11549;50.852;3.816;2023-04-21T12:59:07;18.10;98.40
22765;DHT22;11549;50.852;3.816;2023-04-21T13:01:37;17.90;98.50
22765;DHT22;11549;50.852;3.816;2023-04-21T13:04:06;17.50;98.10
22765;DHT22;11549;50.852;3.816;2023-04-21T13:06:37;17.10;99.90
22765;DHT22;11549;50.852;3.816;2023-04-21T13:09:05;16.80;99.90
22765;DHT22;11549;50.852;3.816;2023-04-21T13:11:34;16.90;99.90
22765;DHT22;11549;50.852;3.816;2023-04-21T13:14:02;17.20;98.40
22765;DHT22;11549;50.852;3.816;2023-04-21T13:16:32;17.40;97.80
22765;DHT22;11549;50.852;3.816;2023-04-21T13:19:01;17.50;98.20
22765;DHT22;11549;50.852;3.816;2023-04-21T13:21:29;17.70;96.70
22765;DHT22;11549;50.852;3.816;2023-04-21T13:23:58;17.80;96.10
22765;DHT22;11549;50.852;3.816;2023-04-21T13:26:29;17.80;96.70
22765;DHT22;11549;50.852;3.816;2023-04-21T13:28:59;17.70;96.40
22765;DHT22;11549;50.852;3.816;2023-04-21T13:31:28;17.70;96.50
22765;DHT22;11549;50.852;3.816;2023-04-21T13:33:59;17.70;94.10
22765;DHT22;11549;50.852;3.816;2023-04-21T13:36:28;17.80;97.20
22765;DHT22;11549;50.852;3.816;2023-04-21T13:38:58;18.20;96.30
22765;DHT22;11549;50.852;3.816;2023-04-21T13:41:27;18.30;96.90
22765;DHT22;11549;50.852;3.816;2023-04-21T13:43:55;18.20;97.00
22765;DHT22;11549;50.852;3.816;2023-04-21T13:46:23;17.90;96.80
22765;DHT22;11549;50.852;3.816;2023-04-21T13:48:52;17.40;96.10
22765;DHT22;11549;50.852;3.816;2023-04-21T13:51:22;17.20;96.50
22765;DHT22;11549;50.852;3.816;2023-04-21T13:53:50;17.40;99.70
22765;DHT22;11549;50.852;3.816;2023-04-21T13:56:18;17.50;97.60
22765;DHT22;11549;50.852;3.816;2023-04-21T13:58:48;17.70;97.10
22765;DHT22;11549;50.852;3.816;2023-04-21T14:01:16;18.00;95.70
22765;DHT22;11549;50.852;3.816;2023-04-21T14:03:47;17.80;93.00
22765;DHT22;11549;50.852;3.816;2023-04-21T14:06:16;18.00;97.80
22765;DHT22;11549;50.852;3.816;2023-04-21T14:08:46;18.10;95.40
22765;DHT22;11549;50.852;3.816;2023-04-21T14:11:14;18.10;93.40
22765;DHT22;11549;50.852;3.816;2023-04-21T14:13:43;18.00;94.00
22765;DHT22;11549;50.852;3.816;2023-04-21T14:16:31;18.00;96.90
22765;DHT22;11549;50.852;3.816;2023-04-21T14:19:00;18.10;93.10
22765;DHT22;11549;50.852;3.816;2023-04-21T14:21:29;17.80;93.20
22765;DHT22;11549;50.852;3.816;2023-04-21T14:23:59;17.60;94.40
22765;DHT22;11549;50.852;3.816;2023-04-21T14:26:28;17.50;95.40
22765;DHT22;11549;50.852;3.816;2023-04-21T14:28:57;17.70;93.80
22765;DHT22;11549;50.852;3.816;2023-04-21T14:31:26;17.70;94.60
22765;DHT22;11549;50.852;3.816;2023-04-21T14:33:55;17.70;94.60
22765;DHT22;11549;50.852;3.816;2023-04-21T14:36:23;17.60;94.60
22765;DHT22;11549;50.852;3.816;2023-04-21T14:38:53;17.30;92.70
22765;DHT22;11549;50.852;3.816;2023-04-21T14:41:23;17.40;91.10
22765;DHT22;11549;50.852;3.816;2023-04-21T14:43:51;17.40;91.50
22765;DHT22;11549;50.852;3.816;2023-04-21T14:46:22;17.30;95.70
22765;DHT22;11549;50.852;3.816;2023-04-21T14:48:50;17.20;95.90
22765;DHT22;11549;50.852;3.816;2023-04-21T14:51:19;17.20;97.00
22765;DHT22;11549;50.852;3.816;2023-04-21T14:53:47;17.30;99.80
22765;DHT22;11549;50.852;3.816;2023-04-21T14:56:16;17.30;99.20
22765;DHT22;11549;50.852;3.816;2023-04-21T14:58:46;17.40;99.90
22765;DHT22;11549;50.852;3.816;2023-04-21T15:01:15;17.30;98.40
22765;DHT22;11549;50.852;3.816;2023-04-21T15:03:43;17.20;98.00
22765;DHT22;11549;50.852;3.816;2023-04-21T15:06:12;17.10;99.20
22765;DHT22;11549;50.852;3.816;2023-04-21T15:08:42;17.10;99.90
22765;DHT22;11549;50.852;3.816;2023-04-21T15:11:10;17.30;99.70
22765;DHT22;11549;50.852;3.816;2023-04-21T15:13:38;17.30;99.40
22765;DHT22;11549;50.852;3.816;2023-04-21T15:16:08;17.10;98.30
22765;DHT22;11549;50.852;3.816;2023-04-21T15:18:37;17.00;98.20
22765;DHT22;11549;50.852;3.816;2023-04-21T15:21:05;16.70;97.80
22765;DHT22;11549;50.852;3.816;2023-04-21T15:23:33;16.40;97.50
22765;DHT22;11549;50.852;3.816;2023-04-21T15:26:02;16.30;97.40
22765;DHT22;11549;50.852;3.816;2023-04-21T15:28:31;16.20;99.00
22765;DHT22;11549;50.852;3.816;2023-04-21T15:31:01;16.20;98.50
22765;DHT22;11549;50.852;3.816;2023-04-21T15:33:31;16.40;99.60
22765;DHT22;11549;50.852;3.816;2023-04-21T15:35:59;16.50;99.40
22765;DHT22;11549;50.852;3.816;2023-04-21T15:38:27;16.50;98.80
22765;DHT22;11549;50.852;3.816;2023-04-21T15:40:56;16.40;98.20
22765;DHT22;11549;50.852;3.816;2023-04-21T15:43:27;16.30;97.80
22765;DHT22;11549;50.852;3.816;2023-04-21T15:45:56;16.30;97.90
22765;DHT22;11549;50.852;3.816;2023-04-21T15:48:24;16.20;98.10
22765;DHT22;11549;50.852;3.816;2023-04-21T15:50:55;16.00;97.10
22765;DHT22;11549;50.852;3.816;2023-04-21T15:53:23;15.90;97.20